KHAE

Hannibal Regional Airport

Hannibal, Missouri, USA
METAR KHAE 190915Z AUTO 05005KT 5SM BR CLR 21/20 A2997 RMK AO2
Observed Flight Rules
Sep-19 @ 09:15 UTC (17 minutes ago) Marginal Visual Flight Rules
Wind Visibility Clouds Conditions
50° at 5 knots 5 miles
  • Clear skies
  • Mist
Temperatures Readings
Current 21°C / 70°F
Dewpoint 20°C / 68°F
Humidity 94%
Altimeter 29.97" Hg
Pressure 1015 hPa
Elevation 234
METAR KHAE 190915Z AUTO 05005KT 5SM BR CLR 21/20 A2997 RMK AO2
Observed Flight Rules
Sep-19 @ 09:15 UTC
(17 minutes ago)
MVFR
Wind Visibility
50° at 5 knots 5 miles
Clouds
  • Clear skies
Conditions
  • Mist
Temperature Dewpoint
21°C / 70°F 20°C / 68°F
Humidity Altimeter Pressure
94% 29.97" Hg 1015 hPa